sensor_id;sensor_type;location;lat;lon;timestamp;temperature;humidity
26164;DHT22;13914;48.178;11.716;2022-09-03T00:01:23;14.60;68.70
26164;DHT22;13914;48.178;11.716;2022-09-03T00:04:00;14.60;69.70
26164;DHT22;13914;48.178;11.716;2022-09-03T00:06:38;14.60;68.90
26164;DHT22;13914;48.178;11.716;2022-09-03T00:09:18;14.60;68.90
26164;DHT22;13914;48.178;11.716;2022-09-03T00:12:00;14.60;69.00
26164;DHT22;13914;48.178;11.716;2022-09-03T00:14:46;14.60;69.00
26164;DHT22;13914;48.178;11.716;2022-09-03T00:17:22;14.60;68.90
26164;DHT22;13914;48.178;11.716;2022-09-03T00:20:04;14.60;69.00
26164;DHT22;13914;48.178;11.716;2022-09-03T00:22:38;14.50;68.90
26164;DHT22;13914;48.178;11.716;2022-09-03T00:25:09;14.50;69.00
26164;DHT22;13914;48.178;11.716;2022-09-03T00:27:40;14.50;68.90
26164;DHT22;13914;48.178;11.716;2022-09-03T00:30:15;14.50;69.10
26164;DHT22;13914;48.178;11.716;2022-09-03T00:38:14;14.40;69.30
26164;DHT22;13914;48.178;11.716;2022-09-03T00:49:22;14.30;69.20
26164;DHT22;13914;48.178;11.716;2022-09-03T01:00:33;14.30;69.50
26164;DHT22;13914;48.178;11.716;2022-09-03T01:17:09;14.20;69.80
26164;DHT22;13914;48.178;11.716;2022-09-03T01:26:14;14.10;69.50
26164;DHT22;13914;48.178;11.716;2022-09-03T01:31:45;14.10;69.70
26164;DHT22;13914;48.178;11.716;2022-09-03T01:45:57;14.00;69.90
26164;DHT22;13914;48.178;11.716;2022-09-03T01:51:22;14.00;70.00
26164;DHT22;13914;48.178;11.716;2022-09-03T01:57:22;13.90;70.00
26164;DHT22;13914;48.178;11.716;2022-09-03T02:00:19;13.90;70.10
26164;DHT22;13914;48.178;11.716;2022-09-03T02:02:50;13.90;70.20
26164;DHT22;13914;48.178;11.716;2022-09-03T02:05:20;13.90;70.30
26164;DHT22;13914;48.178;11.716;2022-09-03T02:08:04;13.90;70.30
26164;DHT22;13914;48.178;11.716;2022-09-03T02:10:52;13.90;70.40
26164;DHT22;13914;48.178;11.716;2022-09-03T02:13:24;13.80;70.70
26164;DHT22;13914;48.178;11.716;2022-09-03T02:15:56;13.80;70.60
26164;DHT22;13914;48.178;11.716;2022-09-03T02:18:29;13.80;70.60
26164;DHT22;13914;48.178;11.716;2022-09-03T02:20:58;13.70;70.50
26164;DHT22;13914;48.178;11.716;2022-09-03T02:23:26;13.70;70.40
26164;DHT22;13914;48.178;11.716;2022-09-03T02:25:58;13.70;70.40
26164;DHT22;13914;48.178;11.716;2022-09-03T02:28:27;13.70;70.50
26164;DHT22;13914;48.178;11.716;2022-09-03T02:30:54;13.70;70.50
26164;DHT22;13914;48.178;11.716;2022-09-03T02:33:21;13.70;70.50
26164;DHT22;13914;48.178;11.716;2022-09-03T02:35:48;13.70;70.70
26164;DHT22;13914;48.178;11.716;2022-09-03T02:38:16;13.60;70.70
26164;DHT22;13914;48.178;11.716;2022-09-03T02:40:44;13.60;70.80
26164;DHT22;13914;48.178;11.716;2022-09-03T02:46:07;13.60;70.70
26164;DHT22;13914;48.178;11.716;2022-09-03T02:48:34;13.60;70.80
26164;DHT22;13914;48.178;11.716;2022-09-03T02:51:00;13.60;71.00
26164;DHT22;13914;48.178;11.716;2022-09-03T02:53:26;13.50;70.80
26164;DHT22;13914;48.178;11.716;2022-09-03T02:55:58;13.60;70.80
26164;DHT22;13914;48.178;11.716;2022-09-03T02:58:24;13.50;70.90
26164;DHT22;13914;48.178;11.716;2022-09-03T03:00:51;13.50;70.90
26164;DHT22;13914;48.178;11.716;2022-09-03T03:03:17;13.50;70.80
26164;DHT22;13914;48.178;11.716;2022-09-03T03:05:45;13.40;70.80
26164;DHT22;13914;48.178;11.716;2022-09-03T03:08:14;13.40;70.90
26164;DHT22;13914;48.178;11.716;2022-09-03T03:10:42;13.40;71.10
26164;DHT22;13914;48.178;11.716;2022-09-03T03:13:12;13.30;71.10
26164;DHT22;13914;48.178;11.716;2022-09-03T03:15:39;13.30;71.20
26164;DHT22;13914;48.178;11.716;2022-09-03T03:18:05;13.30;71.20
26164;DHT22;13914;48.178;11.716;2022-09-03T03:20:32;13.30;71.30
26164;DHT22;13914;48.178;11.716;2022-09-03T03:23:04;13.30;71.20
26164;DHT22;13914;48.178;11.716;2022-09-03T03:25:34;13.30;71.20
26164;DHT22;13914;48.178;11.716;2022-09-03T03:28:01;13.30;71.10
26164;DHT22;13914;48.178;11.716;2022-09-03T03:30:28;13.20;71.10
26164;DHT22;13914;48.178;11.716;2022-09-03T03:32:55;13.20;71.30
26164;DHT22;13914;48.178;11.716;2022-09-03T03:35:21;13.20;71.30
26164;DHT22;13914;48.178;11.716;2022-09-03T03:37:48;13.20;71.40
26164;DHT22;13914;48.178;11.716;2022-09-03T03:40:13;13.10;71.10
26164;DHT22;13914;48.178;11.716;2022-09-03T03:42:40;13.10;71.40
26164;DHT22;13914;48.178;11.716;2022-09-03T03:45:07;13.10;71.40
26164;DHT22;13914;48.178;11.716;2022-09-03T03:47:35;13.10;71.50
26164;DHT22;13914;48.178;11.716;2022-09-03T03:50:01;13.10;71.40
26164;DHT22;13914;48.178;11.716;2022-09-03T03:52:28;13.10;71.50
26164;DHT22;13914;48.178;11.716;2022-09-03T03:54:54;13.10;71.50
26164;DHT22;13914;48.178;11.716;2022-09-03T03:57:21;13.10;71.50
26164;DHT22;13914;48.178;11.716;2022-09-03T03:59:48;13.00;71.60
26164;DHT22;13914;48.178;11.716;2022-09-03T04:02:15;13.00;72.60
26164;DHT22;13914;48.178;11.716;2022-09-03T04:04:42;13.00;71.70
26164;DHT22;13914;48.178;11.716;2022-09-03T04:07:08;13.00;71.80
26164;DHT22;13914;48.178;11.716;2022-09-03T04:09:34;12.90;72.50
26164;DHT22;13914;48.178;11.716;2022-09-03T04:12:00;12.90;71.60
26164;DHT22;13914;48.178;11.716;2022-09-03T04:14:26;12.90;71.60
26164;DHT22;13914;48.178;11.716;2022-09-03T04:16:52;12.90;71.70
26164;DHT22;13914;48.178;11.716;2022-09-03T04:19:19;12.90;71.70
26164;DHT22;13914;48.178;11.716;2022-09-03T04:21:45;12.90;71.70
26164;DHT22;13914;48.178;11.716;2022-09-03T04:24:11;12.80;71.60
26164;DHT22;13914;48.178;11.716;2022-09-03T04:26:37;12.80;71.70
26164;DHT22;13914;48.178;11.716;2022-09-03T04:29:07;12.80;71.60
26164;DHT22;13914;48.178;11.716;2022-09-03T04:31:35;12.80;71.70
26164;DHT22;13914;48.178;11.716;2022-09-03T04:34:02;12.70;71.80
26164;DHT22;13914;48.178;11.716;2022-09-03T04:36:30;12.70;71.70
26164;DHT22;13914;48.178;11.716;2022-09-03T04:38:58;12.70;71.80
26164;DHT22;13914;48.178;11.716;2022-09-03T04:41:28;12.70;72.10
26164;DHT22;13914;48.178;11.716;2022-09-03T04:43:56;12.70;72.30
26164;DHT22;13914;48.178;11.716;2022-09-03T04:46:24;12.70;72.40
26164;DHT22;13914;48.178;11.716;2022-09-03T04:48:53;12.60;72.30
26164;DHT22;13914;48.178;11.716;2022-09-03T04:51:22;12.60;72.00
26164;DHT22;13914;48.178;11.716;2022-09-03T04:53:56;12.60;72.20
26164;DHT22;13914;48.178;11.716;2022-09-03T04:56:32;12.60;72.40
26164;DHT22;13914;48.178;11.716;2022-09-03T04:59:04;12.60;72.80
26164;DHT22;13914;48.178;11.716;2022-09-03T05:01:32;12.60;73.00
26164;DHT22;13914;48.178;11.716;2022-09-03T05:04:00;12.50;72.90
26164;DHT22;13914;48.178;11.716;2022-09-03T05:06:27;12.50;73.10
26164;DHT22;13914;48.178;11.716;2022-09-03T05:08:54;12.50;72.80
26164;DHT22;13914;48.178;11.716;2022-09-03T05:11:21;12.50;73.00
26164;DHT22;13914;48.178;11.716;2022-09-03T05:13:50;12.50;73.40
26164;DHT22;13914;48.178;11.716;2022-09-03T05:16:17;12.50;73.90
26164;DHT22;13914;48.178;11.716;2022-09-03T05:18:44;12.50;73.30
26164;DHT22;13914;48.178;11.716;2022-09-03T05:21:16;12.50;74.30
26164;DHT22;13914;48.178;11.716;2022-09-03T05:23:45;12.60;74.10
26164;DHT22;13914;48.178;11.716;2022-09-03T05:26:14;12.50;74.50
26164;DHT22;13914;48.178;11.716;2022-09-03T05:28:41;12.50;73.90
26164;DHT22;13914;48.178;11.716;2022-09-03T05:31:10;12.60;75.00
26164;DHT22;13914;48.178;11.716;2022-09-03T05:33:40;12.60;73.90
26164;DHT22;13914;48.178;11.716;2022-09-03T05:36:19;12.60;74.40
26164;DHT22;13914;48.178;11.716;2022-09-03T05:38:48;12.60;74.50
26164;DHT22;13914;48.178;11.716;2022-09-03T05:41:16;12.70;74.90
26164;DHT22;13914;48.178;11.716;2022-09-03T05:43:43;12.60;74.20
26164;DHT22;13914;48.178;11.716;2022-09-03T05:46:11;12.70;74.00
26164;DHT22;13914;48.178;11.716;2022-09-03T05:48:41;12.80;73.70
26164;DHT22;13914;48.178;11.716;2022-09-03T05:51:12;12.80;73.60
26164;DHT22;13914;48.178;11.716;2022-09-03T05:53:46;12.80;73.50
26164;DHT22;13914;48.178;11.716;2022-09-03T05:56:17;12.90;73.80
26164;DHT22;13914;48.178;11.716;2022-09-03T05:58:47;12.90;73.60
26164;DHT22;13914;48.178;11.716;2022-09-03T06:01:24;12.90;73.10
26164;DHT22;13914;48.178;11.716;2022-09-03T06:06:34;13.00;72.80
26164;DHT22;13914;48.178;11.716;2022-09-03T06:09:04;13.00;72.50
26164;DHT22;13914;48.178;11.716;2022-09-03T06:11:32;13.10;72.40
26164;DHT22;13914;48.178;11.716;2022-09-03T06:14:01;13.10;72.40
26164;DHT22;13914;48.178;11.716;2022-09-03T06:16:34;13.10;72.40
26164;DHT22;13914;48.178;11.716;2022-09-03T06:19:04;13.20;72.50
26164;DHT22;13914;48.178;11.716;2022-09-03T06:21:38;13.20;72.50
26164;DHT22;13914;48.178;11.716;2022-09-03T06:24:14;13.30;72.40
26164;DHT22;13914;48.178;11.716;2022-09-03T06:26:40;13.30;73.10
26164;DHT22;13914;48.178;11.716;2022-09-03T06:29:06;13.40;72.40
26164;DHT22;13914;48.178;11.716;2022-09-03T06:31:32;13.30;72.60
26164;DHT22;13914;48.178;11.716;2022-09-03T06:34:00;13.40;72.30
26164;DHT22;13914;48.178;11.716;2022-09-03T06:36:26;13.50;73.20
26164;DHT22;13914;48.178;11.716;2022-09-03T06:38:54;13.50;72.30
26164;DHT22;13914;48.178;11.716;2022-09-03T06:41:24;13.60;73.70
26164;DHT22;13914;48.178;11.716;2022-09-03T06:43:54;13.60;72.40
26164;DHT22;13914;48.178;11.716;2022-09-03T06:46:28;13.70;72.00
26164;DHT22;13914;48.178;11.716;2022-09-03T06:48:55;13.80;72.10
26164;DHT22;13914;48.178;11.716;2022-09-03T06:51:23;13.80;72.10
26164;DHT22;13914;48.178;11.716;2022-09-03T06:54:05;13.90;72.00
26164;DHT22;13914;48.178;11.716;2022-09-03T06:56:33;13.90;72.00
26164;DHT22;13914;48.178;11.716;2022-09-03T06:59:10;14.00;72.00
26164;DHT22;13914;48.178;11.716;2022-09-03T07:01:37;14.10;71.80
26164;DHT22;13914;48.178;11.716;2022-09-03T07:04:07;14.10;71.80
26164;DHT22;13914;48.178;11.716;2022-09-03T07:06:38;14.20;71.70
26164;DHT22;13914;48.178;11.716;2022-09-03T07:09:09;14.30;71.70
26164;DHT22;13914;48.178;11.716;2022-09-03T07:11:36;14.40;72.10
26164;DHT22;13914;48.178;11.716;2022-09-03T07:14:04;14.40;72.40
26164;DHT22;13914;48.178;11.716;2022-09-03T07:16:36;14.50;71.70
26164;DHT22;13914;48.178;11.716;2022-09-03T07:19:04;14.50;71.90
26164;DHT22;13914;48.178;11.716;2022-09-03T07:21:33;14.50;71.80
26164;DHT22;13914;48.178;11.716;2022-09-03T07:24:04;14.60;71.50
26164;DHT22;13914;48.178;11.716;2022-09-03T07:26:36;14.70;71.40
26164;DHT22;13914;48.178;11.716;2022-09-03T07:29:03;14.70;72.30
26164;DHT22;13914;48.178;11.716;2022-09-03T07:31:32;14.70;71.30
26164;DHT22;13914;48.178;11.716;2022-09-03T07:34:10;14.80;71.40
26164;DHT22;13914;48.178;11.716;2022-09-03T07:36:43;14.80;71.40
26164;DHT22;13914;48.178;11.716;2022-09-03T07:39:13;14.80;71.10
26164;DHT22;13914;48.178;11.716;2022-09-03T07:41:41;14.90;71.20
26164;DHT22;13914;48.178;11.716;2022-09-03T07:44:14;14.90;71.30
26164;DHT22;13914;48.178;11.716;2022-09-03T07:46:43;15.00;71.10
26164;DHT22;13914;48.178;11.716;2022-09-03T07:49:10;15.00;71.00
26164;DHT22;13914;48.178;11.716;2022-09-03T07:51:37;15.00;71.00
26164;DHT22;13914;48.178;11.716;2022-09-03T07:54:08;15.00;70.90
26164;DHT22;13914;48.178;11.716;2022-09-03T07:56:36;15.00;70.90
26164;DHT22;13914;48.178;11.716;2022-09-03T07:59:04;15.10;71.20
26164;DHT22;13914;48.178;11.716;2022-09-03T08:01:31;15.10;71.10
26164;DHT22;13914;48.178;11.716;2022-09-03T08:03:59;15.10;70.80
26164;DHT22;13914;48.178;11.716;2022-09-03T08:06:27;15.20;70.90
26164;DHT22;13914;48.178;11.716;2022-09-03T08:08:59;15.20;70.80
26164;DHT22;13914;48.178;11.716;2022-09-03T08:11:27;15.20;70.60
26164;DHT22;13914;48.178;11.716;2022-09-03T08:14:02;15.20;70.90
26164;DHT22;13914;48.178;11.716;2022-09-03T08:16:41;15.30;70.90
26164;DHT22;13914;48.178;11.716;2022-09-03T08:19:09;15.30;71.10
26164;DHT22;13914;48.178;11.716;2022-09-03T08:21:38;15.30;70.80
26164;DHT22;13914;48.178;11.716;2022-09-03T08:24:06;15.40;70.80
26164;DHT22;13914;48.178;11.716;2022-09-03T08:26:34;15.40;71.10
26164;DHT22;13914;48.178;11.716;2022-09-03T08:29:02;15.40;70.70
26164;DHT22;13914;48.178;11.716;2022-09-03T08:31:29;15.40;70.80
26164;DHT22;13914;48.178;11.716;2022-09-03T08:33:58;15.50;70.70
26164;DHT22;13914;48.178;11.716;2022-09-03T08:36:33;15.50;70.40
26164;DHT22;13914;48.178;11.716;2022-09-03T08:39:03;15.60;70.80
26164;DHT22;13914;48.178;11.716;2022-09-03T08:50:00;15.70;71.10
26164;DHT22;13914;48.178;11.716;2022-09-03T08:52:51;15.80;70.60
26164;DHT22;13914;48.178;11.716;2022-09-03T08:55:28;15.80;70.70
26164;DHT22;13914;48.178;11.716;2022-09-03T08:58:03;15.90;71.50
26164;DHT22;13914;48.178;11.716;2022-09-03T09:00:54;16.00;72.10
26164;DHT22;13914;48.178;11.716;2022-09-03T09:06:27;16.10;71.00
26164;DHT22;13914;48.178;11.716;2022-09-03T09:15:27;16.50;71.60
26164;DHT22;13914;48.178;11.716;2022-09-03T09:20:51;16.70;71.00
26164;DHT22;13914;48.178;11.716;2022-09-03T09:23:38;16.90;71.70
26164;DHT22;13914;48.178;11.716;2022-09-03T09:26:10;17.00;72.70
26164;DHT22;13914;48.178;11.716;2022-09-03T09:28:38;17.20;72.60
26164;DHT22;13914;48.178;11.716;2022-09-03T09:31:10;17.30;72.50
26164;DHT22;13914;48.178;11.716;2022-09-03T09:33:41;17.40;72.20
26164;DHT22;13914;48.178;11.716;2022-09-03T09:36:12;17.60;72.20
26164;DHT22;13914;48.178;11.716;2022-09-03T09:38:42;17.70;72.30
26164;DHT22;13914;48.178;11.716;2022-09-03T09:43:39;18.00;72.70
26164;DHT22;13914;48.178;11.716;2022-09-03T09:46:09;18.10;72.30
26164;DHT22;13914;48.178;11.716;2022-09-03T09:48:54;18.30;73.40
26164;DHT22;13914;48.178;11.716;2022-09-03T09:51:27;18.40;72.30
26164;DHT22;13914;48.178;11.716;2022-09-03T09:56:35;18.70;72.50
26164;DHT22;13914;48.178;11.716;2022-09-03T09:59:06;18.90;71.70
26164;DHT22;13914;48.178;11.716;2022-09-03T10:01:37;19.00;72.80
26164;DHT22;13914;48.178;11.716;2022-09-03T10:04:09;19.10;72.20
26164;DHT22;13914;48.178;11.716;2022-09-03T10:06:37;19.30;71.50
26164;DHT22;13914;48.178;11.716;2022-09-03T10:09:29;19.40;70.90
26164;DHT22;13914;48.178;11.716;2022-09-03T10:12:07;19.60;70.80
26164;DHT22;13914;48.178;11.716;2022-09-03T10:14:49;19.70;71.10
26164;DHT22;13914;48.178;11.716;2022-09-03T10:20:30;19.90;70.50
26164;DHT22;13914;48.178;11.716;2022-09-03T10:23:57;20.00;70.40
26164;DHT22;13914;48.178;11.716;2022-09-03T10:26:21;20.20;70.20
26164;DHT22;13914;48.178;11.716;2022-09-03T10:29:06;20.30;70.00
26164;DHT22;13914;48.178;11.716;2022-09-03T10:34:34;20.50;69.60
26164;DHT22;13914;48.178;11.716;2022-09-03T10:42:45;20.70;69.10
26164;DHT22;13914;48.178;11.716;2022-09-03T10:46:14;20.80;69.40
26164;DHT22;13914;48.178;11.716;2022-09-03T10:49:05;20.90;69.00
26164;DHT22;13914;48.178;11.716;2022-09-03T10:51:43;21.00;68.80
26164;DHT22;13914;48.178;11.716;2022-09-03T10:54:29;21.10;68.90
26164;DHT22;13914;48.178;11.716;2022-09-03T10:57:12;21.20;68.80
26164;DHT22;13914;48.178;11.716;2022-09-03T11:00:06;21.20;66.60
26164;DHT22;13914;48.178;11.716;2022-09-03T11:06:06;21.40;66.60
26164;DHT22;13914;48.178;11.716;2022-09-03T11:08:59;21.50;66.00
26164;DHT22;13914;48.178;11.716;2022-09-03T11:11:34;21.60;66.80
26164;DHT22;13914;48.178;11.716;2022-09-03T11:14:03;21.70;66.90
26164;DHT22;13914;48.178;11.716;2022-09-03T11:16:45;21.80;67.50
26164;DHT22;13914;48.178;11.716;2022-09-03T11:19:18;22.00;67.40
26164;DHT22;13914;48.178;11.716;2022-09-03T11:21:47;22.10;67.10
26164;DHT22;13914;48.178;11.716;2022-09-03T11:24:22;22.20;67.20
26164;DHT22;13914;48.178;11.716;2022-09-03T11:27:44;22.40;67.10
26164;DHT22;13914;48.178;11.716;2022-09-03T11:31:08;22.50;66.70
26164;DHT22;13914;48.178;11.716;2022-09-03T11:33:27;22.70;66.40
26164;DHT22;13914;48.178;11.716;2022-09-03T11:35:59;22.80;66.90
26164;DHT22;13914;48.178;11.716;2022-09-03T11:38:29;22.90;66.40
26164;DHT22;13914;48.178;11.716;2022-09-03T11:48:45;23.30;65.70
26164;DHT22;13914;48.178;11.716;2022-09-03T11:51:20;23.40;65.00
26164;DHT22;13914;48.178;11.716;2022-09-03T11:56:39;23.60;64.00
26164;DHT22;13914;48.178;11.716;2022-09-03T12:01:46;23.60;63.70
26164;DHT22;13914;48.178;11.716;2022-09-03T12:04:24;23.60;63.30
26164;DHT22;13914;48.178;11.716;2022-09-03T12:13:11;23.80;62.00
26164;DHT22;13914;48.178;11.716;2022-09-03T12:16:13;23.80;62.00
26164;DHT22;13914;48.178;11.716;2022-09-03T12:18:44;23.90;61.50
26164;DHT22;13914;48.178;11.716;2022-09-03T12:21:16;23.90;62.60
26164;DHT22;13914;48.178;11.716;2022-09-03T12:23:45;23.90;63.70
26164;DHT22;13914;48.178;11.716;2022-09-03T12:26:24;24.00;62.90
26164;DHT22;13914;48.178;11.716;2022-09-03T12:28:58;24.00;62.50
26164;DHT22;13914;48.178;11.716;2022-09-03T12:31:29;24.00;61.80
26164;DHT22;13914;48.178;11.716;2022-09-03T12:33:59;24.00;60.90
26164;DHT22;13914;48.178;11.716;2022-09-03T12:36:37;24.10;63.40
26164;DHT22;13914;48.178;11.716;2022-09-03T12:39:14;24.10;63.30
26164;DHT22;13914;48.178;11.716;2022-09-03T12:42:06;24.20;62.10
26164;DHT22;13914;48.178;11.716;2022-09-03T12:49:46;24.20;61.80
26164;DHT22;13914;48.178;11.716;2022-09-03T12:52:29;24.30;60.20
26164;DHT22;13914;48.178;11.716;2022-09-03T12:57:46;24.40;60.70
26164;DHT22;13914;48.178;11.716;2022-09-03T13:00:16;24.40;60.00
26164;DHT22;13914;48.178;11.716;2022-09-03T13:02:58;24.40;62.10
26164;DHT22;13914;48.178;11.716;2022-09-03T13:05:42;24.40;61.10
26164;DHT22;13914;48.178;11.716;2022-09-03T13:08:20;24.40;61.30
26164;DHT22;13914;48.178;11.716;2022-09-03T13:10:55;24.50;61.00
26164;DHT22;13914;48.178;11.716;2022-09-03T13:13:25;24.40;59.70
26164;DHT22;13914;48.178;11.716;2022-09-03T13:31:20;24.40;60.40
26164;DHT22;13914;48.178;11.716;2022-09-03T13:34:05;24.30;60.00
26164;DHT22;13914;48.178;11.716;2022-09-03T13:36:48;24.30;60.80
26164;DHT22;13914;48.178;11.716;2022-09-03T13:39:23;24.30;60.70
26164;DHT22;13914;48.178;11.716;2022-09-03T13:42:08;24.30;59.60
26164;DHT22;13914;48.178;11.716;2022-09-03T13:44:50;24.20;58.90
26164;DHT22;13914;48.178;11.716;2022-09-03T13:47:31;24.20;59.60
26164;DHT22;13914;48.178;11.716;2022-09-03T13:53:02;24.20;59.30
26164;DHT22;13914;48.178;11.716;2022-09-03T13:55:45;24.20;60.30
26164;DHT22;13914;48.178;11.716;2022-09-03T13:58:33;24.10;59.80
26164;DHT22;13914;48.178;11.716;2022-09-03T14:04:00;24.00;59.10
26164;DHT22;13914;48.178;11.716;2022-09-03T14:10:01;23.90;59.90
26164;DHT22;13914;48.178;11.716;2022-09-03T14:12:43;23.80;59.60
26164;DHT22;13914;48.178;11.716;2022-09-03T14:20:44;23.70;59.60
26164;DHT22;13914;48.178;11.716;2022-09-03T14:26:27;23.60;59.00
26164;DHT22;13914;48.178;11.716;2022-09-03T14:29:13;23.50;59.60
26164;DHT22;13914;48.178;11.716;2022-09-03T14:32:14;23.50;59.70
26164;DHT22;13914;48.178;11.716;2022-09-03T14:38:51;23.40;60.20
26164;DHT22;13914;48.178;11.716;2022-09-03T14:41:31;23.40;60.90
26164;DHT22;13914;48.178;11.716;2022-09-03T14:47:07;23.30;62.00
26164;DHT22;13914;48.178;11.716;2022-09-03T14:56:08;23.10;63.80
26164;DHT22;13914;48.178;11.716;2022-09-03T15:13:29;22.60;66.00
26164;DHT22;13914;48.178;11.716;2022-09-03T15:16:01;22.50;66.40
26164;DHT22;13914;48.178;11.716;2022-09-03T15:22:14;22.40;66.40
26164;DHT22;13914;48.178;11.716;2022-09-03T15:25:22;22.30;66.40
26164;DHT22;13914;48.178;11.716;2022-09-03T15:28:24;22.20;66.60
26164;DHT22;13914;48.178;11.716;2022-09-03T15:32:19;22.10;67.00
26164;DHT22;13914;48.178;11.716;2022-09-03T15:34:44;22.00;67.30
26164;DHT22;13914;48.178;11.716;2022-09-03T15:37:46;21.90;67.10
26164;DHT22;13914;48.178;11.716;2022-09-03T15:40:28;21.70;67.30
26164;DHT22;13914;48.178;11.716;2022-09-03T15:43:06;21.70;67.90
26164;DHT22;13914;48.178;11.716;2022-09-03T15:45:50;21.60;67.90
26164;DHT22;13914;48.178;11.716;2022-09-03T15:52:05;21.40;68.20
26164;DHT22;13914;48.178;11.716;2022-09-03T16:00:15;21.10;68.60
26164;DHT22;13914;48.178;11.716;2022-09-03T16:03:00;21.10;68.70
26164;DHT22;13914;48.178;11.716;2022-09-03T16:05:56;21.00;68.90
26164;DHT22;13914;48.178;11.716;2022-09-03T16:08:47;20.90;68.80
26164;DHT22;13914;48.178;11.716;2022-09-03T16:11:43;20.80;69.10
26164;DHT22;13914;48.178;11.716;2022-09-03T16:14:22;20.70;69.10
26164;DHT22;13914;48.178;11.716;2022-09-03T16:17:12;20.70;69.30
26164;DHT22;13914;48.178;11.716;2022-09-03T16:19:45;20.60;69.30
26164;DHT22;13914;48.178;11.716;2022-09-03T16:22:26;20.50;69.40
26164;DHT22;13914;48.178;11.716;2022-09-03T16:25:01;20.40;69.60
26164;DHT22;13914;48.178;11.716;2022-09-03T16:27:33;20.30;69.90
26164;DHT22;13914;48.178;11.716;2022-09-03T16:30:12;20.30;69.90
26164;DHT22;13914;48.178;11.716;2022-09-03T16:38:49;20.10;70.50
26164;DHT22;13914;48.178;11.716;2022-09-03T16:41:33;20.00;70.40
26164;DHT22;13914;48.178;11.716;2022-09-03T16:44:22;20.00;70.70
26164;DHT22;13914;48.178;11.716;2022-09-03T16:55:50;19.80;71.10
26164;DHT22;13914;48.178;11.716;2022-09-03T17:01:58;19.70;71.40
26164;DHT22;13914;48.178;11.716;2022-09-03T17:13:17;19.50;71.70
26164;DHT22;13914;48.178;11.716;2022-09-03T17:19:13;19.40;71.90
26164;DHT22;13914;48.178;11.716;2022-09-03T17:24:50;19.30;71.90
26164;DHT22;13914;48.178;11.716;2022-09-03T17:30:35;19.30;72.20
26164;DHT22;13914;48.178;11.716;2022-09-03T17:36:17;19.20;72.20
26164;DHT22;13914;48.178;11.716;2022-09-03T17:42:05;19.10;72.50
26164;DHT22;13914;48.178;11.716;2022-09-03T17:51:04;18.90;72.70
26164;DHT22;13914;48.178;11.716;2022-09-03T17:56:34;18.80;73.00
26164;DHT22;13914;48.178;11.716;2022-09-03T18:00:02;18.80;72.80
26164;DHT22;13914;48.178;11.716;2022-09-03T18:02:57;18.80;73.10
26164;DHT22;13914;48.178;11.716;2022-09-03T18:05:31;18.70;73.20
26164;DHT22;13914;48.178;11.716;2022-09-03T18:25:35;18.30;73.40
26164;DHT22;13914;48.178;11.716;2022-09-03T18:28:46;18.20;73.50
26164;DHT22;13914;48.178;11.716;2022-09-03T18:31:33;18.20;73.40
26164;DHT22;13914;48.178;11.716;2022-09-03T18:34:20;18.10;73.40
26164;DHT22;13914;48.178;11.716;2022-09-03T18:37:11;18.10;73.70
26164;DHT22;13914;48.178;11.716;2022-09-03T18:39:56;18.00;73.90
26164;DHT22;13914;48.178;11.716;2022-09-03T18:43:07;18.00;74.00
26164;DHT22;13914;48.178;11.716;2022-09-03T18:46:24;17.90;74.10
26164;DHT22;13914;48.178;11.716;2022-09-03T18:52:58;17.80;74.10
26164;DHT22;13914;48.178;11.716;2022-09-03T18:59:25;17.70;74.10
26164;DHT22;13914;48.178;11.716;2022-09-03T19:02:42;17.60;74.10
26164;DHT22;13914;48.178;11.716;2022-09-03T19:09:08;17.60;74.40
26164;DHT22;13914;48.178;11.716;2022-09-03T19:12:29;17.50;74.20
26164;DHT22;13914;48.178;11.716;2022-09-03T19:15:33;17.40;74.40
26164;DHT22;13914;48.178;11.716;2022-09-03T19:21:51;17.30;74.30
26164;DHT22;13914;48.178;11.716;2022-09-03T19:24:39;17.30;74.30
26164;DHT22;13914;48.178;11.716;2022-09-03T19:33:52;17.20;74.40
26164;DHT22;13914;48.178;11.716;2022-09-03T19:37:05;17.10;74.50
26164;DHT22;13914;48.178;11.716;2022-09-03T19:53:06;16.80;74.80
26164;DHT22;13914;48.178;11.716;2022-09-03T19:55:55;16.80;75.00
26164;DHT22;13914;48.178;11.716;2022-09-03T19:58:50;16.80;74.90
26164;DHT22;13914;48.178;11.716;2022-09-03T20:01:38;16.80;75.00
26164;DHT22;13914;48.178;11.716;2022-09-03T20:04:40;16.70;74.80
26164;DHT22;13914;48.178;11.716;2022-09-03T20:07:28;16.70;75.00
26164;DHT22;13914;48.178;11.716;2022-09-03T20:10:15;16.60;74.90
26164;DHT22;13914;48.178;11.716;2022-09-03T20:13:02;16.60;75.00
26164;DHT22;13914;48.178;11.716;2022-09-03T20:19:02;16.50;75.10
26164;DHT22;13914;48.178;11.716;2022-09-03T20:21:58;16.50;75.00
26164;DHT22;13914;48.178;11.716;2022-09-03T20:30:36;16.40;75.10
26164;DHT22;13914;48.178;11.716;2022-09-03T20:53:22;16.10;75.50
26164;DHT22;13914;48.178;11.716;2022-09-03T20:56:08;16.10;75.30
26164;DHT22;13914;48.178;11.716;2022-09-03T21:04:40;16.00;75.20
26164;DHT22;13914;48.178;11.716;2022-09-03T21:10:39;16.00;75.40
26164;DHT22;13914;48.178;11.716;2022-09-03T21:13:25;15.90;75.30
26164;DHT22;13914;48.178;11.716;2022-09-03T21:24:59;15.80;75.60
26164;DHT22;13914;48.178;11.716;2022-09-03T21:27:37;15.80;75.50
26164;DHT22;13914;48.178;11.716;2022-09-03T21:30:14;15.70;75.50
26164;DHT22;13914;48.178;11.716;2022-09-03T21:33:01;15.70;75.50
26164;DHT22;13914;48.178;11.716;2022-09-03T21:35:43;15.70;75.70
26164;DHT22;13914;48.178;11.716;2022-09-03T21:38:24;15.70;75.70
26164;DHT22;13914;48.178;11.716;2022-09-03T21:47:14;15.60;75.70
26164;DHT22;13914;48.178;11.716;2022-09-03T21:55:46;15.50;75.70
26164;DHT22;13914;48.178;11.716;2022-09-03T22:04:20;15.40;75.90
26164;DHT22;13914;48.178;11.716;2022-09-03T22:09:31;15.40;75.80
26164;DHT22;13914;48.178;11.716;2022-09-03T22:15:07;15.30;75.90
26164;DHT22;13914;48.178;11.716;2022-09-03T22:18:05;15.30;75.90
26164;DHT22;13914;48.178;11.716;2022-09-03T22:20:35;15.30;76.00
26164;DHT22;13914;48.178;11.716;2022-09-03T22:23:15;15.30;76.00
26164;DHT22;13914;48.178;11.716;2022-09-03T22:26:03;15.30;76.10
26164;DHT22;13914;48.178;11.716;2022-09-03T22:28:43;15.20;76.00
26164;DHT22;13914;48.178;11.716;2022-09-03T22:31:32;15.20;76.10
26164;DHT22;13914;48.178;11.716;2022-09-03T22:34:20;15.20;76.10
26164;DHT22;13914;48.178;11.716;2022-09-03T22:37:04;15.10;76.00
26164;DHT22;13914;48.178;11.716;2022-09-03T22:39:44;15.10;76.00